createdAt,value
2019-03-17T00:00:10.043Z,80.20
2019-03-17T00:02:38.611Z,80.40
2019-03-17T00:05:07.202Z,81.10
2019-03-17T00:07:35.767Z,80.80
2019-03-17T00:10:04.636Z,79.90
2019-03-17T00:12:33.198Z,79.20
2019-03-17T00:15:05.729Z,79.80
2019-03-17T00:17:31.944Z,79.40
2019-03-17T00:20:00.569Z,79.00
2019-03-17T00:22:29.124Z,78.60
2019-03-17T00:25:08.501Z,78.30
2019-03-17T00:27:27.858Z,78.60
2019-03-17T00:29:56.429Z,79.40
2019-03-17T00:32:25.087Z,79.10
2019-03-17T00:34:53.663Z,78.60
2019-03-17T00:37:22.247Z,79.30
2019-03-17T00:39:50.835Z,80.00
2019-03-17T00:42:19.415Z,79.70
2019-03-17T00:44:47.993Z,79.90
2019-03-17T00:47:16.606Z,79.70
2019-03-17T00:49:45.189Z,80.00
2019-03-17T00:52:13.757Z,80.00
2019-03-17T00:54:42.351Z,80.00
2019-03-17T00:57:10.909Z,80.70
2019-03-17T00:59:39.502Z,80.70
2019-03-17T01:02:08.072Z,80.70
2019-03-17T01:04:36.708Z,80.80
2019-03-17T01:07:05.283Z,80.80
2019-03-17T01:09:33.863Z,81.00
2019-03-17T01:12:02.438Z,81.10
2019-03-17T01:14:31.048Z,81.10
2019-03-17T01:16:59.616Z,81.20
2019-03-17T01:19:28.182Z,81.40
2019-03-17T01:21:56.779Z,81.50
2019-03-17T01:24:25.346Z,81.70
2019-03-17T01:26:53.926Z,81.80
2019-03-17T01:29:22.498Z,81.50
2019-03-17T01:31:51.091Z,81.60
2019-03-17T01:34:19.654Z,81.90
2019-03-17T01:36:48.311Z,82.20
2019-03-17T01:39:16.956Z,81.70
2019-03-17T01:41:45.537Z,81.10
2019-03-17T01:44:14.122Z,81.30
2019-03-17T01:46:42.755Z,82.60
2019-03-17T01:49:11.345Z,83.40
2019-03-17T01:51:39.904Z,83.40
2019-03-17T01:54:08.488Z,83.50
2019-03-17T01:56:37.051Z,83.10
2019-03-17T01:59:05.731Z,82.20
2019-03-17T02:01:34.291Z,82.50
2019-03-17T02:04:02.846Z,83.10
2019-03-17T02:06:31.450Z,83.20
2019-03-17T02:08:59.997Z,82.80
2019-03-17T02:11:28.588Z,83.20
2019-03-17T02:13:57.223Z,83.40
2019-03-17T02:16:25.812Z,83.40
2019-03-17T02:18:54.374Z,84.50
2019-03-17T02:21:22.959Z,84.10
2019-03-17T02:23:51.609Z,84.60
2019-03-17T02:26:20.290Z,84.20
2019-03-17T02:28:48.860Z,84.50
2019-03-17T02:31:19.491Z,85.00
2019-03-17T02:33:48.095Z,85.30
2019-03-17T02:36:16.643Z,85.00
2019-03-17T02:38:45.235Z,84.80
2019-03-17T02:41:13.798Z,84.90
2019-03-17T02:43:42.388Z,85.20
2019-03-17T02:46:10.957Z,84.90
2019-03-17T02:48:39.547Z,84.80
2019-03-17T02:51:08.111Z,85.40
2019-03-17T02:53:36.676Z,85.20
2019-03-17T02:56:05.261Z,85.30
2019-03-17T02:58:33.828Z,85.40
2019-03-17T03:01:02.430Z,85.60
2019-03-17T03:03:31.066Z,85.20
2019-03-17T03:05:59.652Z,84.80
2019-03-17T03:08:28.223Z,85.10
2019-03-17T03:10:56.861Z,85.50
2019-03-17T03:13:25.432Z,85.70
2019-03-17T03:15:53.968Z,85.60
2019-03-17T03:18:22.551Z,86.10
2019-03-17T03:20:51.114Z,86.00
2019-03-17T03:23:19.704Z,85.80
2019-03-17T03:25:48.262Z,85.00
2019-03-17T03:28:16.851Z,85.40
2019-03-17T03:30:45.436Z,86.00
2019-03-17T03:33:14.012Z,86.50
2019-03-17T03:35:42.575Z,86.40
2019-03-17T03:38:11.188Z,85.80
2019-03-17T03:40:39.758Z,85.40
2019-03-17T03:43:08.319Z,85.30
2019-03-17T03:45:36.902Z,85.60
2019-03-17T03:48:05.463Z,85.70
2019-03-17T03:50:34.056Z,86.00
2019-03-17T03:53:02.694Z,86.30
2019-03-17T03:55:31.273Z,86.60
2019-03-17T03:57:59.825Z,86.90
2019-03-17T04:00:28.542Z,87.00
2019-03-17T04:02:57.173Z,86.60
2019-03-17T04:05:25.730Z,86.70
2019-03-17T04:07:54.308Z,87.40
2019-03-17T04:10:22.941Z,87.60
2019-03-17T04:12:51.518Z,88.60
2019-03-17T04:15:20.095Z,88.10
2019-03-17T04:17:48.689Z,88.00
2019-03-17T04:20:17.252Z,87.50
2019-03-17T04:22:45.836Z,87.20
2019-03-17T04:25:18.287Z,87.00
2019-03-17T04:27:46.944Z,87.20
2019-03-17T04:30:15.473Z,87.50
2019-03-17T04:32:44.035Z,87.80
2019-03-17T04:35:12.635Z,88.10
2019-03-17T04:37:41.199Z,88.50
2019-03-17T04:40:10.065Z,88.70
2019-03-17T04:42:38.711Z,88.60
2019-03-17T04:45:08.025Z,88.90
2019-03-17T04:47:36.583Z,88.70
2019-03-17T04:50:06.235Z,88.10
2019-03-17T04:52:34.797Z,88.00
2019-03-17T04:55:03.435Z,88.40
2019-03-17T04:57:32.023Z,88.80
2019-03-17T05:00:00.581Z,89.00
2019-03-17T05:02:29.175Z,89.40
2019-03-17T05:04:57.735Z,89.30
2019-03-17T05:07:26.321Z,89.30
2019-03-17T05:09:54.880Z,89.70
2019-03-17T05:12:23.540Z,89.90
2019-03-17T05:14:52.105Z,89.90
2019-03-17T05:17:20.727Z,89.60
2019-03-17T05:19:49.277Z,89.00
2019-03-17T05:22:17.848Z,89.20
2019-03-17T05:24:46.503Z,89.20
2019-03-17T05:27:15.076Z,89.30
2019-03-17T05:29:43.662Z,89.20
2019-03-17T05:32:15.027Z,89.10
2019-03-17T05:34:43.612Z,89.50
2019-03-17T05:37:12.182Z,89.60
2019-03-17T05:39:40.776Z,89.80
2019-03-17T05:42:09.336Z,89.70
2019-03-17T05:44:38.042Z,89.60
2019-03-17T05:47:06.606Z,89.40
2019-03-17T05:49:35.174Z,89.40
2019-03-17T05:52:03.763Z,89.50
2019-03-17T05:54:32.323Z,89.60
2019-03-17T05:57:00.921Z,89.60
2019-03-17T05:59:29.487Z,89.70
2019-03-17T06:01:58.079Z,89.60
2019-03-17T06:04:26.646Z,89.30
2019-03-17T06:06:56.254Z,89.10
2019-03-17T06:09:24.807Z,89.10
2019-03-17T06:11:53.400Z,89.70
2019-03-17T06:14:22.031Z,88.80
2019-03-17T06:16:50.622Z,88.80
2019-03-17T06:19:19.182Z,88.30
2019-03-17T06:21:47.816Z,87.90
2019-03-17T06:24:16.415Z,87.80
2019-03-17T06:26:45.007Z,87.70
2019-03-17T06:29:13.599Z,87.70
2019-03-17T06:31:42.166Z,87.30
2019-03-17T06:34:10.756Z,87.50
2019-03-17T06:36:39.329Z,86.70
2019-03-17T06:39:07.985Z,86.80
2019-03-17T06:41:36.538Z,86.60
2019-03-17T06:44:05.129Z,87.00
2019-03-17T06:46:33.688Z,86.20
2019-03-17T06:49:02.305Z,85.90
2019-03-17T06:51:30.880Z,85.60
2019-03-17T06:53:59.443Z,85.40
2019-03-17T06:56:28.035Z,85.20
2019-03-17T06:58:56.602Z,85.10
2019-03-17T07:01:25.187Z,85.20
2019-03-17T07:03:53.763Z,85.40
2019-03-17T07:06:22.449Z,85.10
2019-03-17T07:08:51.019Z,85.00
2019-03-17T07:11:19.643Z,84.90
2019-03-17T07:13:48.223Z,84.10
2019-03-17T07:16:16.806Z,83.80
2019-03-17T07:18:45.430Z,83.60
2019-03-17T07:21:14.113Z,83.80
2019-03-17T07:23:42.694Z,83.70
2019-03-17T07:26:11.445Z,83.90
2019-03-17T07:28:41.692Z,83.40
2019-03-17T07:31:10.262Z,82.60
2019-03-17T07:33:38.851Z,81.90
2019-03-17T07:36:07.419Z,82.00
2019-03-17T07:38:36.006Z,81.80
2019-03-17T07:41:04.584Z,81.10
2019-03-17T07:43:33.165Z,80.70
2019-03-17T07:46:01.811Z,79.80
2019-03-17T07:48:30.412Z,79.30
2019-03-17T07:50:59.020Z,79.20
2019-03-17T07:53:27.622Z,79.20
2019-03-17T07:55:56.203Z,79.10
2019-03-17T07:58:24.774Z,78.60
2019-03-17T08:00:53.369Z,77.90
2019-03-17T08:03:21.940Z,77.80
2019-03-17T08:05:50.526Z,77.10
2019-03-17T08:08:19.086Z,76.40
2019-03-17T08:10:47.684Z,76.00
2019-03-17T08:13:16.268Z,75.40
2019-03-17T08:15:44.891Z,73.20
2019-03-17T08:18:13.467Z,73.10
2019-03-17T08:20:42.033Z,72.60
2019-03-17T08:23:10.636Z,71.30
2019-03-17T08:25:39.211Z,71.10
2019-03-17T08:28:07.791Z,70.80
2019-03-17T08:30:36.364Z,69.20
2019-03-17T08:33:06.159Z,68.20
2019-03-17T08:35:34.731Z,69.00
2019-03-17T08:38:03.348Z,68.20
2019-03-17T08:40:31.920Z,67.80
2019-03-17T08:43:00.481Z,67.30
2019-03-17T08:45:29.079Z,66.70
2019-03-17T08:47:58.684Z,66.00
2019-03-17T08:50:27.347Z,65.60
2019-03-17T08:52:55.915Z,65.10
2019-03-17T08:55:24.500Z,65.20
2019-03-17T08:57:53.066Z,65.30
2019-03-17T09:00:21.720Z,64.50
2019-03-17T09:02:50.296Z,64.80
2019-03-17T09:05:18.874Z,64.50
2019-03-17T09:07:47.451Z,65.30
2019-03-17T09:10:16.388Z,65.60
2019-03-17T09:12:44.966Z,65.70
2019-03-17T09:15:13.535Z,65.00
2019-03-17T09:17:42.124Z,65.90
2019-03-17T09:20:14.285Z,65.50
2019-03-17T09:22:42.909Z,65.20
2019-03-17T09:25:11.632Z,64.80
2019-03-17T09:27:40.195Z,64.70
2019-03-17T09:30:11.690Z,63.90
2019-03-17T09:32:40.271Z,63.30
2019-03-17T09:35:10.107Z,64.10
2019-03-17T09:37:38.690Z,65.20
2019-03-17T09:40:14.881Z,65.90
2019-03-17T09:42:43.530Z,65.10
2019-03-17T09:45:13.093Z,64.50
2019-03-17T09:47:41.738Z,64.60
2019-03-17T09:50:15.060Z,64.30
2019-03-17T09:52:43.630Z,63.30
2019-03-17T09:55:12.263Z,63.50
2019-03-17T09:57:40.824Z,64.30
2019-03-17T10:00:12.661Z,63.70
2019-03-17T10:02:41.315Z,63.10
2019-03-17T10:05:10.581Z,62.70
2019-03-17T10:07:39.197Z,62.00
2019-03-17T10:10:11.190Z,63.70
2019-03-17T10:12:39.756Z,64.00
2019-03-17T10:15:11.268Z,62.70
2019-03-17T10:17:39.899Z,62.90
2019-03-17T10:20:18.571Z,63.60
2019-03-17T10:22:47.222Z,63.30
2019-03-17T10:25:15.804Z,62.90
2019-03-17T10:27:44.388Z,61.10
2019-03-17T10:30:17.953Z,59.30
2019-03-17T10:32:46.524Z,58.10
2019-03-17T10:35:15.124Z,57.40
2019-03-17T10:37:43.673Z,57.40
2019-03-17T10:40:17.008Z,56.40
2019-03-17T10:42:45.609Z,55.90
2019-03-17T10:45:14.648Z,56.10
2019-03-17T10:47:43.206Z,57.20
2019-03-17T10:50:21.494Z,58.30
2019-03-17T10:52:50.109Z,57.50
2019-03-17T10:55:18.690Z,56.10
2019-03-17T10:57:47.262Z,55.40
2019-03-17T11:00:21.017Z,56.30
2019-03-17T11:02:49.589Z,56.20
2019-03-17T11:05:18.159Z,55.30
2019-03-17T11:07:46.751Z,56.50
2019-03-17T11:10:15.384Z,57.30
2019-03-17T11:12:43.970Z,57.80
2019-03-17T11:15:20.580Z,58.10
2019-03-17T11:17:49.192Z,58.50
2019-03-17T11:20:17.771Z,59.40
2019-03-17T11:22:46.361Z,58.90
2019-03-17T11:25:16.287Z,59.40
2019-03-17T11:27:44.942Z,58.90
2019-03-17T11:30:14.907Z,59.20
2019-03-17T11:32:43.471Z,58.50
2019-03-17T11:35:12.073Z,58.60
2019-03-17T11:37:40.634Z,57.30
2019-03-17T11:40:17.291Z,57.60
2019-03-17T11:42:45.859Z,57.20
2019-03-17T11:45:14.981Z,56.50
2019-03-17T11:47:44.085Z,55.30
2019-03-17T11:50:18.722Z,55.80
2019-03-17T11:52:47.377Z,55.20
2019-03-17T11:55:15.963Z,55.10
2019-03-17T11:57:44.522Z,54.70
2019-03-17T12:00:20.505Z,55.30
2019-03-17T12:02:49.110Z,54.70
2019-03-17T12:05:17.675Z,53.40
2019-03-17T12:07:46.272Z,52.40
2019-03-17T12:10:16.015Z,50.20
2019-03-17T12:12:44.575Z,48.60
2019-03-17T12:15:21.429Z,47.80
2019-03-17T12:17:50.024Z,47.70
2019-03-17T12:20:18.609Z,48.00
2019-03-17T12:22:47.195Z,47.50
2019-03-17T12:25:16.920Z,47.30
2019-03-17T12:27:45.498Z,47.50
2019-03-17T12:30:23.875Z,49.00
2019-03-17T12:32:53.008Z,50.40
2019-03-17T12:35:21.572Z,50.10
2019-03-17T12:37:50.276Z,49.10
2019-03-17T12:40:18.902Z,49.60
2019-03-17T12:42:47.480Z,48.90
2019-03-17T12:45:16.072Z,47.70
2019-03-17T12:47:44.646Z,47.40
2019-03-17T12:50:22.354Z,46.60
2019-03-17T12:52:50.924Z,45.30
2019-03-17T12:55:19.525Z,46.00
2019-03-17T12:57:48.095Z,45.90
2019-03-17T13:00:17.836Z,45.90
2019-03-17T13:02:46.387Z,45.90
2019-03-17T13:05:14.961Z,46.00
2019-03-17T13:07:43.554Z,46.20
2019-03-17T13:10:17.361Z,46.80
2019-03-17T13:12:46.007Z,46.00
2019-03-17T13:15:14.649Z,46.00
2019-03-17T13:17:43.247Z,46.30
2019-03-17T13:20:21.127Z,47.50
2019-03-17T13:22:49.702Z,46.70
2019-03-17T13:25:18.278Z,46.20
2019-03-17T13:27:46.870Z,46.10
2019-03-17T13:30:16.357Z,46.40
2019-03-17T13:32:44.918Z,47.20
2019-03-17T13:35:13.511Z,47.80
2019-03-17T13:37:42.116Z,47.40
2019-03-17T13:40:28.276Z,47.70
2019-03-17T13:42:48.100Z,46.90
2019-03-17T13:45:16.689Z,46.50
2019-03-17T13:47:45.266Z,46.20
2019-03-17T13:50:20.568Z,44.40
2019-03-17T13:52:49.138Z,39.80
2019-03-17T13:55:17.739Z,40.40
2019-03-17T13:58:09.590Z,38.70
2019-03-17T14:00:38.182Z,40.00
2019-03-17T14:03:06.739Z,45.00
2019-03-17T14:05:35.389Z,47.60
2019-03-17T14:08:03.959Z,48.00
2019-03-17T14:10:40.971Z,48.70
2019-03-17T14:13:02.705Z,50.10
2019-03-17T14:15:31.275Z,50.80
2019-03-17T14:17:59.863Z,51.10
2019-03-17T14:20:28.431Z,52.10
2019-03-17T14:22:57.024Z,51.50
2019-03-17T14:25:31.338Z,51.70
2019-03-17T14:28:00.022Z,52.00
2019-03-17T14:30:30.052Z,51.70
2019-03-17T14:32:58.646Z,51.10
2019-03-17T14:35:27.210Z,51.90
2019-03-17T14:37:55.795Z,51.80
2019-03-17T14:40:24.447Z,51.50
2019-03-17T14:42:55.275Z,48.50
2019-03-17T14:45:23.182Z,44.20
2019-03-17T14:47:51.782Z,42.40
2019-03-17T14:50:21.388Z,43.60
2019-03-17T14:52:50.012Z,45.70
2019-03-17T14:55:18.580Z,47.30
2019-03-17T14:57:47.171Z,47.50
2019-03-17T15:00:19.516Z,47.50
2019-03-17T15:02:48.090Z,48.70
2019-03-17T15:05:16.686Z,51.60
2019-03-17T15:07:45.253Z,53.60
2019-03-17T15:10:21.248Z,54.40
2019-03-17T15:12:49.810Z,55.30
2019-03-17T15:15:20.510Z,55.00
2019-03-17T15:17:49.088Z,54.60
2019-03-17T15:20:19.330Z,55.00
2019-03-17T15:22:47.893Z,56.00
2019-03-17T15:25:16.499Z,56.60
2019-03-17T15:27:45.089Z,57.00
2019-03-17T15:30:21.970Z,56.60
2019-03-17T15:32:50.538Z,56.70
2019-03-17T15:35:19.191Z,56.30
2019-03-17T15:37:48.106Z,56.70
2019-03-17T15:40:18.084Z,57.40
2019-03-17T15:42:46.657Z,57.50
2019-03-17T15:45:16.761Z,58.00
2019-03-17T15:47:45.339Z,57.30
2019-03-17T15:50:18.699Z,57.60
2019-03-17T15:52:47.298Z,57.70
2019-03-17T15:55:16.933Z,57.70
2019-03-17T15:58:04.931Z,58.20
2019-03-17T16:00:33.516Z,58.20
2019-03-17T16:03:02.100Z,57.80
2019-03-17T16:05:30.679Z,57.80
2019-03-17T16:07:59.303Z,58.70
2019-03-17T16:10:30.291Z,58.90
2019-03-17T16:12:58.928Z,59.10
2019-03-17T16:15:27.921Z,59.40
2019-03-17T16:17:56.500Z,59.60
2019-03-17T16:20:28.903Z,59.20
2019-03-17T16:22:57.468Z,59.40
2019-03-17T16:25:28.656Z,59.30
2019-03-17T16:27:57.191Z,59.20
2019-03-17T16:30:28.078Z,58.80
2019-03-17T16:32:56.636Z,58.60
2019-03-17T16:35:25.233Z,58.70
2019-03-17T16:37:53.798Z,58.70
2019-03-17T16:40:27.389Z,58.90
2019-03-17T16:42:55.994Z,59.60
2019-03-17T16:45:24.523Z,60.00
2019-03-17T16:47:53.107Z,60.30
2019-03-17T16:50:22.815Z,59.80
2019-03-17T16:52:51.411Z,59.80
2019-03-17T16:55:23.250Z,60.30
2019-03-17T16:57:51.829Z,60.40
2019-03-17T17:00:25.076Z,61.10
2019-03-17T17:02:53.727Z,61.60
2019-03-17T17:05:23.233Z,61.80
2019-03-17T17:07:51.826Z,62.50
2019-03-17T17:10:29.635Z,63.20
2019-03-17T17:12:58.224Z,63.20
2019-03-17T17:15:28.870Z,62.90
2019-03-17T17:17:58.664Z,62.70
2019-03-17T17:20:32.587Z,63.40
2019-03-17T17:23:01.184Z,63.60
2019-03-17T17:25:29.755Z,63.50
2019-03-17T17:27:58.414Z,63.90
2019-03-17T17:30:26.986Z,64.20
2019-03-17T17:32:57.341Z,64.20
2019-03-17T17:35:26.169Z,63.70
2019-03-17T17:37:54.727Z,63.80
2019-03-17T17:40:27.556Z,64.00
2019-03-17T17:42:56.130Z,63.60
2019-03-17T17:45:25.566Z,63.70
2019-03-17T17:47:54.128Z,63.90
2019-03-17T17:50:24.340Z,64.10
2019-03-17T17:52:52.935Z,64.20
2019-03-17T17:55:23.021Z,64.10
2019-03-17T17:57:53.238Z,64.30
2019-03-17T18:00:23.613Z,63.90
2019-03-17T18:02:52.200Z,63.50
2019-03-17T18:05:20.773Z,63.60
2019-03-17T18:07:49.376Z,63.40
2019-03-17T18:10:18.729Z,63.30
2019-03-17T18:12:47.350Z,63.20
2019-03-17T18:15:24.155Z,62.90
2019-03-17T18:17:52.791Z,63.10
2019-03-17T18:20:23.169Z,63.50
2019-03-17T18:22:52.241Z,64.80
2019-03-17T18:25:21.867Z,64.10
2019-03-17T18:27:50.604Z,64.50
2019-03-17T18:30:20.619Z,64.40
2019-03-17T18:32:49.201Z,64.70
2019-03-17T18:35:17.854Z,64.30
2019-03-17T18:37:46.459Z,64.20
2019-03-17T18:40:16.081Z,64.70
2019-03-17T18:42:44.658Z,65.00
2019-03-17T18:45:26.739Z,64.90
2019-03-17T18:47:57.449Z,65.20
2019-03-17T18:50:25.488Z,65.80
2019-03-17T18:52:54.047Z,65.40
2019-03-17T18:55:22.643Z,65.50
2019-03-17T18:57:51.210Z,65.70
2019-03-17T19:00:20.832Z,65.80
2019-03-17T19:02:49.468Z,66.00
2019-03-17T19:05:20.001Z,65.60
2019-03-17T19:07:48.674Z,65.30
2019-03-17T19:10:18.187Z,65.50
2019-03-17T19:12:46.777Z,66.40
2019-03-17T19:15:18.606Z,66.40
2019-03-17T19:17:47.628Z,66.60
2019-03-17T19:20:17.100Z,67.40
2019-03-17T19:22:45.711Z,67.90
2019-03-17T19:25:22.783Z,67.80
2019-03-17T19:27:51.486Z,67.80
2019-03-17T19:30:20.911Z,68.30
2019-03-17T19:32:49.520Z,68.50
2019-03-17T19:35:18.100Z,69.80
2019-03-17T19:37:46.659Z,70.70
2019-03-17T19:40:19.223Z,72.20
2019-03-17T19:42:57.944Z,74.00
2019-03-17T19:45:17.994Z,74.90
2019-03-17T19:47:46.566Z,75.40
2019-03-17T19:50:17.362Z,75.90
2019-03-17T19:52:45.923Z,76.70
2019-03-17T19:55:14.518Z,77.40
2019-03-17T19:57:43.223Z,77.60
2019-03-17T20:00:35.788Z,78.40
2019-03-17T20:03:08.301Z,78.80
2019-03-17T20:05:36.895Z,79.80
2019-03-17T20:08:05.690Z,80.30
2019-03-17T20:10:35.031Z,80.90
2019-03-17T20:13:11.527Z,80.80
2019-03-17T20:15:33.965Z,81.40
2019-03-17T20:18:02.540Z,82.60
2019-03-17T20:20:31.106Z,82.70
2019-03-17T20:22:59.693Z,83.50
2019-03-17T20:25:28.263Z,83.50
2019-03-17T20:27:56.860Z,83.20
2019-03-17T20:30:26.698Z,83.50
2019-03-17T20:32:55.347Z,83.90
2019-03-17T20:35:23.953Z,83.70
2019-03-17T20:37:52.567Z,83.70
2019-03-17T20:40:21.164Z,84.20
2019-03-17T20:42:49.811Z,84.00
2019-03-17T20:45:20.324Z,83.20
2019-03-17T20:47:49.626Z,82.60
2019-03-17T20:50:19.066Z,82.20
2019-03-17T20:52:47.795Z,81.90
2019-03-17T20:55:16.380Z,81.90
2019-03-17T20:57:44.955Z,81.30
2019-03-17T21:00:17.320Z,80.90
2019-03-17T21:02:45.884Z,80.90
2019-03-17T21:05:14.511Z,81.50
2019-03-17T21:07:43.167Z,81.30
2019-03-17T21:10:15.706Z,81.00
2019-03-17T21:12:44.275Z,80.60
2019-03-17T21:15:20.857Z,80.30
2019-03-17T21:17:49.431Z,80.50
2019-03-17T21:20:21.272Z,80.10
2019-03-17T21:22:49.966Z,80.20
2019-03-17T21:25:18.549Z,79.60
2019-03-17T21:27:47.147Z,79.20
2019-03-17T21:30:27.965Z,79.70
2019-03-17T21:32:56.559Z,79.10
2019-03-17T21:35:25.129Z,79.50
2019-03-17T21:37:53.719Z,78.90
2019-03-17T21:40:22.373Z,78.70
2019-03-17T21:42:50.961Z,78.80
2019-03-17T21:45:19.539Z,78.60
2019-03-17T21:47:48.148Z,78.40
2019-03-17T21:50:22.959Z,78.80
2019-03-17T21:52:51.560Z,78.60
2019-03-17T21:55:20.185Z,78.60
2019-03-17T21:57:48.725Z,78.90
2019-03-17T22:00:18.159Z,78.80
2019-03-17T22:02:46.739Z,79.30
2019-03-17T22:05:15.392Z,79.80
2019-03-17T22:07:50.325Z,79.30
2019-03-17T22:10:16.398Z,78.80
2019-03-17T22:12:44.976Z,78.60
2019-03-17T22:15:14.597Z,78.50
2019-03-17T22:17:43.159Z,78.10
2019-03-17T22:20:13.982Z,78.10
2019-03-17T22:22:42.618Z,78.80
2019-03-17T22:25:14.928Z,77.50
2019-03-17T22:27:43.508Z,77.70
2019-03-17T22:30:15.405Z,77.30
2019-03-17T22:32:43.995Z,77.40
2019-03-17T22:35:12.563Z,78.10
2019-03-17T22:37:41.171Z,77.80
2019-03-17T22:40:15.778Z,77.30
2019-03-17T22:42:44.356Z,77.30
2019-03-17T22:45:13.963Z,77.20
2019-03-17T22:47:42.573Z,77.70
2019-03-17T22:50:17.614Z,77.40
2019-03-17T22:52:46.215Z,77.10
2019-03-17T22:55:14.951Z,77.40
2019-03-17T22:57:43.539Z,77.60
2019-03-17T23:00:26.222Z,77.70
2019-03-17T23:02:54.826Z,77.90
2019-03-17T23:05:23.426Z,77.50
2019-03-17T23:07:51.990Z,77.60
2019-03-17T23:10:20.584Z,77.50
2019-03-17T23:12:49.245Z,77.30
2019-03-17T23:15:17.798Z,77.20
2019-03-17T23:17:46.367Z,77.00
2019-03-17T23:20:16.087Z,77.20
2019-03-17T23:22:44.660Z,77.30
2019-03-17T23:25:13.520Z,77.00
2019-03-17T23:27:42.087Z,76.90
2019-03-17T23:30:17.609Z,77.10
2019-03-17T23:32:48.960Z,77.10
2019-03-17T23:35:16.367Z,77.80
2019-03-17T23:37:44.936Z,77.70
2019-03-17T23:40:14.845Z,77.80
2019-03-17T23:42:43.430Z,77.80
2019-03-17T23:45:12.268Z,78.00
2019-03-17T23:47:40.849Z,78.20
2019-03-17T23:50:11.817Z,77.80
2019-03-17T23:52:40.400Z,78.00
2019-03-17T23:55:12.367Z,78.10
2019-03-17T23:57:40.265Z,78.10
